Time;durP1;ratioP1;P1;durP2;ratioP2;P2;SDS_P1;SDS_P2;PMS_P1;PMS_P2;Temp;Humidity;BMP_temperature;BMP_pressure;BME280_temperature;BME280_humidity;BME280_pressure;Samples;Min_cycle;Max_cycle;Signal;HPM_P1;HPM_P2
2023/06/20 00:01:50;;;;;;;13.02;11.73;;;17.30;1.00;;;;;;5050838;28;20021;-57
2023/06/20 00:04:16;;;;;;;19.42;11.40;;;17.10;1.00;;;;;;5051270;28;20037;-57
2023/06/20 00:06:42;;;;;;;15.02;10.60;;;17.10;1.00;;;;;;5054651;28;20047;-54
2023/06/20 00:09:07;;;;;;;13.35;10.00;;;17.20;1.00;;;;;;5054247;28;20032;-57
2023/06/20 00:11:33;;;;;;;14.38;10.80;;;17.20;1.00;;;;;;5053341;28;20468;-55
2023/06/20 00:13:58;;;;;;;12.35;11.10;;;17.20;1.00;;;;;;5056225;28;20350;-54
2023/06/20 00:16:24;;;;;;;14.98;10.70;;;17.10;1.00;;;;;;5074496;28;20054;-55
2023/06/20 00:18:54;;;;;;;21.40;12.02;;;17.10;1.00;;;;;;5074735;28;20013;-57
2023/06/20 00:21:25;;;;;;;13.60;11.25;;;17.00;1.00;;;;;;5074521;28;20024;-56
2023/06/20 00:23:51;;;;;;;18.48;11.77;;;17.00;1.00;;;;;;5074173;28;20633;-55
2023/06/20 00:26:17;;;;;;;12.30;10.98;;;16.90;1.00;;;;;;5074026;28;20044;-57
2023/06/20 00:28:43;;;;;;;13.27;11.27;;;17.00;1.00;;;;;;5074355;28;20067;-57
2023/06/20 00:31:08;;;;;;;13.80;12.30;;;17.10;1.00;;;;;;5074070;28;20027;-55
2023/06/20 00:33:36;;;;;;;14.60;11.13;;;17.10;1.00;;;;;;5074392;28;20408;-57
2023/06/20 00:36:02;;;;;;;13.02;11.45;;;17.20;1.00;;;;;;5074263;28;20013;-57
2023/06/20 00:38:29;;;;;;;14.55;12.02;;;17.20;1.00;;;;;;5074020;28;20031;-57
2023/06/20 00:40:55;;;;;;;16.67;12.65;;;17.20;1.00;;;;;;5074025;28;20021;-57
2023/06/20 00:43:21;;;;;;;17.27;11.68;;;17.10;1.00;;;;;;5074070;28;20024;-56
2023/06/20 00:45:46;;;;;;;15.70;11.93;;;17.00;1.00;;;;;;5073910;28;20029;-55
2023/06/20 00:48:12;;;;;;;13.32;11.88;;;17.00;1.00;;;;;;5074115;28;20368;-54
2023/06/20 00:50:38;;;;;;;18.35;13.93;;;16.90;1.00;;;;;;5074137;28;20498;-56
2023/06/20 00:53:05;;;;;;;14.88;12.75;;;16.90;1.00;;;;;;5074016;28;20033;-58
2023/06/20 00:55:33;;;;;;;17.75;12.07;;;16.80;1.00;;;;;;5073769;28;20024;-56
2023/06/20 00:57:59;;;;;;;15.20;12.23;;;16.80;1.00;;;;;;5073603;28;20040;-55
2023/06/20 01:00:26;;;;;;;18.30;13.77;;;16.80;1.00;;;;;;5072413;28;20043;-58
2023/06/20 01:03:02;;;;;;;15.68;11.85;;;16.80;1.00;;;;;;5073534;28;20368;-57
2023/06/20 01:05:29;;;;;;;22.23;12.50;;;16.80;1.00;;;;;;5073327;28;20363;-55
2023/06/20 01:08:08;;;;;;;17.77;12.02;;;16.80;1.00;;;;;;5073662;28;20052;-57
2023/06/20 01:10:48;;;;;;;18.83;11.82;;;16.70;1.00;;;;;;5073457;28;20087;-56
2023/06/20 01:13:37;;;;;;;14.30;12.80;;;16.70;1.00;;;;;;5073355;28;20009;-55
2023/06/20 01:16:25;;;;;;;13.15;11.70;;;16.60;1.00;;;;;;5073042;28;20025;-56
2023/06/20 01:19:05;;;;;;;14.73;12.18;;;16.50;1.00;;;;;;5073525;28;20032;-55
2023/06/20 01:21:41;;;;;;;16.00;14.30;;;16.40;1.00;;;;;;5073530;28;20484;-58
2023/06/20 01:24:13;;;;;;;16.58;12.82;;;16.40;7.60;;;;;;5073295;28;20558;-55
2023/06/20 01:26:47;;;;;;;16.17;12.68;;;16.40;1.00;;;;;;5073400;28;20027;-57
2023/06/20 01:29:15;;;;;;;18.13;12.70;;;16.50;1.20;;;;;;5073230;28;20067;-53
2023/06/20 01:31:49;;;;;;;24.55;13.52;;;16.30;1.00;;;;;;5073398;28;20554;-57
2023/06/20 01:34:22;;;;;;;15.60;12.68;;;16.30;8.10;;;;;;5073087;28;20040;-54
2023/06/20 01:36:53;;;;;;;16.13;11.95;;;16.30;7.20;;;;;;5073324;28;20483;-56
2023/06/20 01:39:35;;;;;;;16.60;12.93;;;16.30;9.60;;;;;;5072930;28;20047;-55
2023/06/20 01:42:03;;;;;;;16.70;12.65;;;16.30;3.70;;;;;;5072903;28;20044;-54
2023/06/20 01:44:31;;;;;;;14.45;12.45;;;16.20;7.00;;;;;;5072569;28;20029;-55
2023/06/20 01:46:58;;;;;;;14.38;12.88;;;16.20;4.60;;;;;;5072918;28;20042;-55
2023/06/20 01:49:25;;;;;;;20.70;14.40;;;16.20;17.80;;;;;;5072911;28;20677;-58
2023/06/20 01:51:55;;;;;;;26.50;13.40;;;16.20;19.80;;;;;;5072948;28;20402;-54
2023/06/20 01:54:27;;;;;;;15.35;12.77;;;16.30;8.60;;;;;;5072538;28;20141;-56
2023/06/20 01:56:57;;;;;;;14.82;13.25;;;16.30;9.50;;;;;;5072472;28;20109;-57
2023/06/20 01:59:24;;;;;;;23.15;12.80;;;16.20;13.70;;;;;;5072145;28;20029;-54
2023/06/20 02:01:52;;;;;;;27.65;14.15;;;16.20;13.90;;;;;;5072498;28;20021;-58
2023/06/20 02:04:18;;;;;;;15.82;12.48;;;16.30;11.10;;;;;;5072271;28;20463;-56
2023/06/20 02:06:46;;;;;;;16.80;13.23;;;16.30;8.30;;;;;;5072460;28;20023;-57
2023/06/20 02:09:13;;;;;;;17.30;13.50;;;16.30;9.80;;;;;;5072195;28;20472;-55
2023/06/20 02:11:39;;;;;;;15.88;13.75;;;16.40;8.10;;;;;;5072372;28;20456;-57
2023/06/20 02:14:07;;;;;;;20.27;13.40;;;16.30;4.00;;;;;;5072201;28;20517;-58
2023/06/20 02:16:36;;;;;;;16.08;13.60;;;16.30;4.90;;;;;;5072465;28;20375;-55
2023/06/20 02:19:03;;;;;;;18.20;14.85;;;16.30;9.80;;;;;;5072251;28;20125;-57
2023/06/20 02:21:32;;;;;;;20.38;13.85;;;16.30;8.40;;;;;;5072077;28;20028;-56
2023/06/20 02:24:01;;;;;;;14.32;12.85;;;16.20;11.50;;;;;;5072254;28;20064;-57
2023/06/20 02:26:31;;;;;;;21.13;13.65;;;16.20;8.60;;;;;;5070481;28;20361;-53
2023/06/20 02:29:02;;;;;;;16.08;13.10;;;16.10;9.10;;;;;;5071688;28;20044;-57
2023/06/20 02:31:35;;;;;;;16.85;13.25;;;16.10;6.30;;;;;;5071936;28;20052;-55
2023/06/20 02:34:04;;;;;;;16.23;13.38;;;16.10;17.10;;;;;;5071321;28;20024;-56
2023/06/20 02:36:31;;;;;;;15.88;14.18;;;16.20;9.00;;;;;;5070855;28;20021;-54
2023/06/20 02:38:57;;;;;;;17.23;13.40;;;16.20;18.40;;;;;;5071120;28;20464;-58
2023/06/20 02:41:24;;;;;;;21.25;14.93;;;16.20;20.00;;;;;;5071485;28;20052;-58
2023/06/20 02:43:50;;;;;;;15.90;13.43;;;16.10;13.40;;;;;;5070788;28;20048;-57
2023/06/20 02:46:27;;;;;;;24.33;14.75;;;16.00;9.50;;;;;;5069371;28;20475;-58
2023/06/20 02:49:21;;;;;;;15.38;13.75;;;15.90;17.80;;;;;;5071145;28;20025;-57
2023/06/20 02:51:56;;;;;;;17.52;13.88;;;15.80;17.40;;;;;;5071226;28;20119;-55
2023/06/20 02:54:46;;;;;;;21.80;14.90;;;15.70;21.90;;;;;;5071437;28;20024;-56
2023/06/20 02:57:18;;;;;;;21.48;14.35;;;15.60;22.00;;;;;;5071400;28;20049;-58
2023/06/20 02:59:52;;;;;;;16.42;13.90;;;15.60;27.90;;;;;;5053500;28;20537;-54
2023/06/20 03:02:19;;;;;;;16.38;13.15;;;15.60;30.40;;;;;;5071346;28;20483;-57
2023/06/20 03:04:47;;;;;;;17.13;14.23;;;15.60;29.00;;;;;;5071103;28;20410;-55
2023/06/20 03:07:14;;;;;;;16.17;14.50;;;15.70;28.80;;;;;;5071415;28;20661;-57
2023/06/20 03:09:40;;;;;;;16.77;13.00;;;15.60;24.40;;;;;;5071254;28;20016;-55
2023/06/20 03:12:07;;;;;;;17.90;15.23;;;15.60;22.80;;;;;;5071386;28;20017;-55
2023/06/20 03:14:33;;;;;;;16.88;13.50;;;15.60;26.30;;;;;;5071513;28;20112;-58
2023/06/20 03:16:59;;;;;;;16.77;13.18;;;15.60;24.30;;;;;;5071577;28;20107;-56
2023/06/20 03:19:25;;;;;;;15.43;13.30;;;15.60;18.90;;;;;;5071388;28;20028;-55
2023/06/20 03:21:51;;;;;;;17.98;14.88;;;15.60;24.70;;;;;;5071505;28;20032;-58
2023/06/20 03:24:17;;;;;;;22.23;15.48;;;15.70;24.00;;;;;;5071316;28;20140;-54
2023/06/20 03:26:42;;;;;;;17.80;14.88;;;15.70;31.60;;;;;;5071492;28;20029;-58
2023/06/20 03:29:08;;;;;;;22.45;15.43;;;15.80;28.80;;;;;;5071228;28;20082;-58
2023/06/20 03:31:34;;;;;;;20.52;14.95;;;15.70;27.90;;;;;;5070601;28;20060;-56
2023/06/20 03:33:59;;;;;;;24.10;14.98;;;15.70;30.50;;;;;;5069068;28;20033;-57
2023/06/20 03:36:25;;;;;;;22.33;15.18;;;15.70;29.90;;;;;;5070544;28;20442;-59
2023/06/20 03:38:51;;;;;;;16.55;14.63;;;15.70;27.90;;;;;;5072712;28;20483;-55
2023/06/20 03:41:16;;;;;;;19.02;14.07;;;15.70;23.50;;;;;;5075221;28;20056;-56
2023/06/20 03:43:42;;;;;;;18.02;13.32;;;15.70;21.30;;;;;;5075323;28;20079;-58
2023/06/20 03:46:07;;;;;;;27.52;15.25;;;15.70;22.20;;;;;;5075106;28;20056;-57
2023/06/20 03:48:33;;;;;;;32.13;14.40;;;15.70;20.30;;;;;;5075128;28;20025;-54
2023/06/20 03:50:59;;;;;;;20.58;14.13;;;15.70;27.40;;;;;;5075033;28;20046;-57
2023/06/20 03:53:24;;;;;;;20.65;13.85;;;15.80;26.60;;;;;;5074926;28;20111;-58
2023/06/20 03:55:50;;;;;;;17.33;14.90;;;15.90;31.20;;;;;;5075139;28;20052;-58
2023/06/20 03:58:15;;;;;;;20.42;15.35;;;15.90;29.90;;;;;;5074665;28;20500;-57
2023/06/20 04:00:41;;;;;;;16.10;13.95;;;16.10;27.00;;;;;;5075032;28;20438;-57
2023/06/20 04:03:07;;;;;;;17.40;14.88;;;16.10;19.90;;;;;;5074819;28;20032;-58
2023/06/20 04:05:33;;;;;;;18.77;13.73;;;16.30;21.60;;;;;;5074697;28;20507;-57
2023/06/20 04:08:00;;;;;;;21.33;14.93;;;16.30;25.30;;;;;;5074759;28;20024;-58
2023/06/20 04:10:27;;;;;;;22.30;14.63;;;16.40;19.90;;;;;;5074535;28;20101;-57
2023/06/20 04:12:52;;;;;;;19.17;14.63;;;16.50;14.00;;;;;;5074778;28;20366;-57
2023/06/20 04:15:18;;;;;;;18.88;13.75;;;16.50;16.70;;;;;;5074552;28;20017;-58
2023/06/20 04:17:45;;;;;;;15.77;14.18;;;16.80;12.40;;;;;;5074627;28;20025;-57
2023/06/20 04:20:14;;;;;;;24.80;15.73;;;16.80;8.20;;;;;;5074480;28;20025;-57
2023/06/20 04:22:44;;;;;;;22.55;15.15;;;16.80;13.90;;;;;;5074389;28;20116;-55
2023/06/20 04:25:22;;;;;;;17.98;14.95;;;16.80;11.70;;;;;;5073977;28;20028;-58
2023/06/20 04:27:53;;;;;;;24.15;15.13;;;16.80;6.10;;;;;;5074389;28;20021;-57
2023/06/20 04:30:20;;;;;;;21.80;14.80;;;16.90;11.80;;;;;;5074312;28;20345;-56
2023/06/20 04:32:45;;;;;;;19.20;15.13;;;16.90;15.90;;;;;;5074338;28;20420;-56
2023/06/20 04:35:11;;;;;;;23.40;15.45;;;17.00;10.40;;;;;;5074090;28;20109;-58
2023/06/20 04:37:38;;;;;;;16.50;14.40;;;17.00;6.90;;;;;;5074292;28;20017;-56
2023/06/20 04:40:05;;;;;;;21.13;16.42;;;17.00;8.40;;;;;;5074282;28;20120;-57
2023/06/20 04:42:31;;;;;;;21.42;15.13;;;17.20;11.60;;;;;;5074321;28;20036;-56
2023/06/20 04:44:57;;;;;;;19.70;15.02;;;17.30;12.10;;;;;;5074034;28;20077;-57
2023/06/20 04:47:23;;;;;;;22.60;15.75;;;17.30;26.70;;;;;;5073997;28;20021;-57
2023/06/20 04:49:48;;;;;;;22.63;16.00;;;17.60;23.00;;;;;;5073355;28;20028;-57
2023/06/20 04:52:14;;;;;;;22.65;15.75;;;17.70;4.00;;;;;;5073520;28;20016;-58
2023/06/20 04:54:40;;;;;;;18.30;15.25;;;17.90;1.00;;;;;;5074031;28;20423;-56
2023/06/20 04:57:05;;;;;;;18.98;15.75;;;18.10;1.00;;;;;;5073726;28;20116;-58
2023/06/20 04:59:31;;;;;;;19.63;16.42;;;18.30;1.00;;;;;;5073625;28;20031;-57
2023/06/20 05:01:57;;;;;;;21.50;15.82;;;18.50;1.00;;;;;;5073492;28;20025;-58
2023/06/20 05:04:22;;;;;;;16.98;15.23;;;18.80;1.00;;;;;;5073567;28;20079;-57
2023/06/20 05:06:48;;;;;;;17.85;13.07;;;19.10;1.00;;;;;;5073434;28;20018;-58
2023/06/20 05:09:14;;;;;;;14.80;13.20;;;19.20;1.00;;;;;;5073492;28;20029;-56
2023/06/20 05:11:40;;;;;;;16.33;14.70;;;19.20;1.00;;;;;;5073224;28;20025;-58
2023/06/20 05:14:05;;;;;;;17.45;13.30;;;19.20;1.00;;;;;;5072112;28;20055;-58
2023/06/20 05:16:31;;;;;;;18.95;14.02;;;19.40;1.00;;;;;;5073233;28;20017;-56
2023/06/20 05:18:56;;;;;;;18.40;13.77;;;19.60;1.00;;;;;;5073411;28;20025;-56
2023/06/20 05:21:22;;;;;;;21.98;12.75;;;19.50;1.00;;;;;;5073357;28;20024;-57
2023/06/20 05:23:48;;;;;;;16.23;12.45;;;19.20;1.00;;;;;;5072026;28;20035;-55
2023/06/20 05:26:13;;;;;;;13.70;12.30;;;19.40;1.00;;;;;;5071813;28;20031;-58
2023/06/20 05:28:39;;;;;;;14.55;12.43;;;19.50;1.00;;;;;;5071712;28;20363;-57
2023/06/20 05:31:04;;;;;;;17.70;11.48;;;19.60;1.00;;;;;;5073091;28;20017;-59
2023/06/20 05:33:30;;;;;;;14.65;12.30;;;19.70;1.00;;;;;;5073136;28;20016;-59
2023/06/20 05:35:57;;;;;;;13.10;11.73;;;19.80;1.00;;;;;;5073237;28;20055;-60
2023/06/20 05:38:23;;;;;;;15.68;12.20;;;20.00;1.00;;;;;;5072929;28;20056;-60
2023/06/20 05:40:49;;;;;;;21.67;12.25;;;20.10;1.00;;;;;;5072868;28;20058;-59
2023/06/20 05:43:14;;;;;;;18.10;11.40;;;20.20;99.90;;;;;;5072895;28;20055;-59
2023/06/20 05:45:40;;;;;;;13.07;11.88;;;20.30;99.90;;;;;;5072784;28;20078;-57
2023/06/20 05:48:08;;;;;;;13.90;10.80;;;20.40;99.90;;;;;;5072763;28;20033;-59
2023/06/20 05:50:35;;;;;;;12.48;9.98;;;20.70;99.90;;;;;;5072880;28;20099;-57
2023/06/20 05:53:00;;;;;;;15.43;11.90;;;20.90;99.90;;;;;;5072984;28;20060;-57
2023/06/20 05:55:26;;;;;;;13.15;10.93;;;21.10;99.90;;;;;;5072638;28;20028;-60
2023/06/20 05:57:52;;;;;;;16.85;10.75;;;21.40;90.50;;;;;;5072413;28;20072;-58
2023/06/20 06:00:18;;;;;;;11.88;9.15;;;21.70;99.90;;;;;;5072598;28;20052;-57
2023/06/20 06:02:46;;;;;;;9.00;8.15;;;22.00;1.00;;;;;;5070827;28;20025;-60
2023/06/20 06:05:13;;;;;;;9.02;8.13;;;22.20;1.00;;;;;;5072278;28;20049;-58
2023/06/20 06:07:39;;;;;;;11.40;8.60;;;22.30;1.00;;;;;;5072683;28;20070;-56
2023/06/20 06:10:09;;;;;;;8.95;8.05;;;22.40;99.90;;;;;;5072663;28;20027;-58
2023/06/20 06:12:36;;;;;;;10.32;8.02;;;22.30;64.90;;;;;;5072374;28;20486;-57
2023/06/20 06:15:03;;;;;;;9.23;6.82;;;22.40;99.90;;;;;;5072635;28;20028;-60
2023/06/20 06:17:30;;;;;;;8.65;7.75;;;22.40;1.00;;;;;;5072370;28;20060;-58
2023/06/20 06:19:57;;;;;;;8.30;7.50;;;22.40;70.80;;;;;;5072447;28;20020;-59
2023/06/20 06:22:23;;;;;;;12.05;8.40;;;22.40;99.90;;;;;;5072213;28;20033;-60
2023/06/20 06:24:48;;;;;;;14.13;7.88;;;22.20;1.00;;;;;;5072355;28;20029;-56
2023/06/20 06:27:14;;;;;;;8.93;7.97;;;22.10;1.00;;;;;;5072021;28;20029;-56
2023/06/20 06:29:40;;;;;;;11.38;7.75;;;22.10;99.90;;;;;;5072232;28;20024;-59
2023/06/20 06:32:07;;;;;;;11.23;7.57;;;22.00;99.90;;;;;;5072023;28;20030;-58
2023/06/20 06:34:33;;;;;;;9.48;7.25;;;22.20;1.00;;;;;;5071917;28;20024;-58
2023/06/20 06:40:27;;;;;;;10.18;8.68;;;22.60;1.00;;;;;;5072121;28;20032;-57
2023/06/20 06:42:53;;;;;;;7.88;7.05;;;22.70;1.00;;;;;;5071994;28;20127;-59
2023/06/20 06:45:18;;;;;;;11.10;6.45;;;22.70;99.90;;;;;;5071728;28;20115;-59
2023/06/20 06:47:44;;;;;;;8.82;7.07;;;23.10;56.50;;;;;;5071922;28;20028;-60
2023/06/20 06:50:10;;;;;;;9.00;5.90;;;23.30;1.00;;;;;;5071513;28;20015;-57
2023/06/20 06:52:35;;;;;;;9.93;6.88;;;23.40;99.90;;;;;;5071809;28;20063;-57
2023/06/20 06:55:01;;;;;;;8.40;6.78;;;23.40;56.30;;;;;;5071771;28;20479;-56
2023/06/20 06:57:27;;;;;;;8.77;6.78;;;23.50;99.90;;;;;;5071472;28;20403;-57
2023/06/20 06:59:53;;;;;;;7.60;6.50;;;23.40;1.00;;;;;;5071856;28;20032;-57
2023/06/20 07:02:18;;;;;;;10.18;5.95;;;23.50;99.90;;;;;;5071593;28;20021;-58
2023/06/20 07:04:45;;;;;;;7.70;6.20;;;23.60;1.00;;;;;;5071572;28;20032;-57
2023/06/20 07:07:10;;;;;;;8.63;6.70;;;23.50;70.80;;;;;;5071499;28;20108;-59
2023/06/20 07:09:36;;;;;;;8.07;6.35;;;23.50;99.90;;;;;;5071720;28;20104;-57
2023/06/20 07:12:04;;;;;;;7.68;5.75;;;23.30;90.10;;;;;;5071442;28;20119;-57
2023/06/20 07:14:30;;;;;;;7.00;5.85;;;23.40;1.00;;;;;;5071054;28;20024;-57
2023/06/20 07:16:55;;;;;;;7.97;6.57;;;23.40;54.50;;;;;;5071587;28;20032;-58
2023/06/20 07:19:21;;;;;;;6.68;5.97;;;23.30;1.00;;;;;;5071412;28;20055;-58
2023/06/20 07:21:46;;;;;;;7.82;5.53;;;23.10;99.90;;;;;;5071202;28;20037;-59
2023/06/20 07:24:12;;;;;;;9.43;5.63;;;23.00;99.90;;;;;;5069147;28;20568;-58
2023/06/20 07:26:38;;;;;;;7.45;5.70;;;23.10;99.90;;;;;;5070826;28;20013;-57
2023/06/20 07:29:03;;;;;;;13.70;5.97;;;23.30;15.70;;;;;;5071408;28;20028;-59
2023/06/20 07:31:29;;;;;;;5.82;5.22;;;23.30;14.80;;;;;;5071378;28;20060;-59
2023/06/20 07:33:54;;;;;;;6.07;5.10;;;23.40;1.00;;;;;;5070797;28;20020;-57
2023/06/20 07:36:20;;;;;;;8.18;5.35;;;23.60;5.50;;;;;;5070014;28;20024;-58
2023/06/20 07:38:46;;;;;;;9.52;5.20;;;23.30;99.90;;;;;;5071498;28;20040;-57
2023/06/20 07:41:11;;;;;;;7.80;5.95;;;23.50;99.90;;;;;;5070415;28;20472;-59
2023/06/20 07:46:59;;;;;;;9.55;5.50;;;23.90;99.90;;;;;;5071263;28;20043;-60
2023/06/20 07:49:25;;;;;;;11.77;5.32;;;23.90;99.90;;;;;;5071261;28;20447;-58
2023/06/20 07:51:50;;;;;;;6.68;5.00;;;24.10;99.90;;;;;;5070685;28;20016;-55
2023/06/20 07:54:16;;;;;;;5.18;4.40;;;24.20;1.00;;;;;;5068821;28;20052;-57
2023/06/20 07:56:41;;;;;;;8.23;4.55;;;24.10;1.00;;;;;;5070083;28;20093;-58
2023/06/20 07:59:07;;;;;;;5.03;4.53;;;23.80;99.90;;;;;;5070151;28;20037;-57
2023/06/20 08:01:33;;;;;;;8.15;4.18;;;23.90;99.90;;;;;;5069515;28;20056;-60
2023/06/20 08:03:58;;;;;;;8.05;4.50;;;24.10;99.90;;;;;;5070709;28;20107;-59
2023/06/20 08:06:24;;;;;;;8.15;4.78;;;24.30;1.00;;;;;;5070508;28;20021;-59
2023/06/20 08:08:50;;;;;;;5.15;4.32;;;24.30;99.90;;;;;;5070362;28;20013;-60
2023/06/20 08:11:23;;;;;;;7.35;4.43;;;24.60;1.00;;;;;;5070157;28;20405;-60
2023/06/20 08:13:49;;;;;;;4.82;4.32;;;24.70;1.00;;;;;;5069605;28;20029;-58
2023/06/20 08:16:14;;;;;;;3.88;3.58;;;24.60;1.00;;;;;;5069503;28;20036;-56
2023/06/20 08:18:40;;;;;;;10.43;4.55;;;24.60;10.20;;;;;;5069684;28;20143;-58
2023/06/20 08:21:06;;;;;;;7.18;3.97;;;24.50;1.00;;;;;;5069656;28;20357;-58
2023/06/20 08:23:31;;;;;;;4.38;3.83;;;24.80;1.00;;;;;;5069107;28;20024;-59
2023/06/20 08:25:57;;;;;;;5.35;3.90;;;24.80;99.90;;;;;;5071951;28;20468;-57
2023/06/20 08:28:24;;;;;;;4.38;3.97;;;24.90;1.00;;;;;;5073339;28;20099;-65
2023/06/20 08:30:50;;;;;;;5.93;3.60;;;25.10;99.90;;;;;;5073238;28;20360;-57
2023/06/20 08:33:16;;;;;;;3.85;3.40;;;25.30;99.90;;;;;;5073917;28;20020;-58
2023/06/20 08:35:42;;;;;;;4.70;4.30;;;25.30;99.90;;;;;;5073664;28;20108;-59
2023/06/20 08:38:09;;;;;;;4.93;3.53;;;25.40;99.90;;;;;;5074120;28;20108;-57
2023/06/20 08:40:35;;;;;;;5.13;3.35;;;25.70;99.90;;;;;;5074229;28;20090;-58
2023/06/20 08:43:00;;;;;;;4.32;3.42;;;25.90;99.90;;;;;;5074302;28;20024;-59
2023/06/20 08:45:27;;;;;;;5.38;3.95;;;25.80;1.00;;;;;;5074040;28;20033;-59
2023/06/20 08:47:58;;;;;;;4.93;3.78;;;25.90;43.60;;;;;;5074193;28;20413;-59
2023/06/20 08:50:24;;;;;;;5.55;3.63;;;26.10;1.00;;;;;;5074065;28;20016;-58
2023/06/20 08:52:53;;;;;;;5.88;4.15;;;26.00;1.00;;;;;;5074129;28;20031;-58
2023/06/20 08:55:20;;;;;;;4.55;3.80;;;26.10;1.00;;;;;;5073857;28;20032;-58
2023/06/20 08:57:46;;;;;;;4.40;3.70;;;26.20;1.00;;;;;;5073907;28;20119;-59
2023/06/20 09:00:22;;;;;;;4.05;3.65;;;26.10;99.90;;;;;;5073926;28;20488;-59
2023/06/20 09:02:51;;;;;;;6.10;3.65;;;26.20;99.90;;;;;;5074019;28;20520;-59
2023/06/20 09:05:17;;;;;;;3.78;3.33;;;26.50;99.90;;;;;;5073606;28;20162;-60
2023/06/20 09:07:44;;;;;;;7.18;4.00;;;26.60;99.90;;;;;;5072602;28;20025;-58
2023/06/20 09:10:13;;;;;;;10.63;4.40;;;26.70;99.90;;;;;;5073671;28;20027;-59
2023/06/20 09:12:53;;;;;;;6.63;4.07;;;27.00;99.90;;;;;;5069733;28;20039;-58
2023/06/20 09:15:22;;;;;;;6.40;3.35;;;26.90;99.90;;;;;;5027939;28;20021;-59
2023/06/20 09:17:52;;;;;;;3.70;3.20;;;27.00;99.90;;;;;;5037762;28;20040;-59
2023/06/20 09:20:17;;;;;;;6.43;5.38;;;26.90;99.90;;;;;;5042104;28;20033;-59
2023/06/20 09:22:43;;;;;;;5.65;3.17;;;26.80;99.90;;;;;;5042765;28;20033;-59
2023/06/20 09:25:11;;;;;;;5.90;3.28;;;26.80;99.90;;;;;;5024363;28;20032;-60
2023/06/20 09:27:38;;;;;;;29.38;24.33;;;27.30;99.90;;;;;;5041984;28;20487;-57
2023/06/20 09:30:05;;;;;;;4.25;3.85;;;27.40;99.90;;;;;;5045442;28;20021;-60
2023/06/20 09:32:41;;;;;;;7.65;3.50;;;27.70;93.80;;;;;;5042743;28;20112;-59
2023/06/20 09:35:09;;;;;;;4.82;3.17;;;27.60;99.90;;;;;;5042305;28;20356;-59
2023/06/20 09:37:49;;;;;;;6.25;3.13;;;27.90;71.30;;;;;;5041990;28;21184;-59
2023/06/20 09:40:16;;;;;;;4.88;2.92;;;28.10;94.50;;;;;;5041106;28;20396;-59
2023/06/20 09:42:44;;;;;;;8.13;3.40;;;28.40;92.30;;;;;;5042374;28;20095;-59
2023/06/20 09:45:12;;;;;;;4.03;3.00;;;28.10;1.00;;;;;;5043150;28;20067;-56
2023/06/20 09:47:39;;;;;;;3.28;2.58;;;28.30;1.00;;;;;;5042066;28;20068;-59
2023/06/20 09:50:13;;;;;;;4.65;3.42;;;28.20;1.00;;;;;;5042300;28;20037;-58
2023/06/20 09:52:44;;;;;;;8.18;3.65;;;28.30;1.00;;;;;;5041677;28;20048;-58
2023/06/20 09:55:11;;;;;;;4.30;3.58;;;28.70;1.00;;;;;;5043181;28;20056;-59
2023/06/20 09:57:53;;;;;;;5.13;3.65;;;28.80;1.00;;;;;;5041753;28;20060;-59
2023/06/20 10:00:22;;;;;;;5.82;2.83;;;28.70;1.00;;;;;;5041019;28;20120;-56
2023/06/20 10:02:48;;;;;;;4.18;3.53;;;29.20;1.00;;;;;;5042421;28;20412;-59
2023/06/20 10:05:16;;;;;;;5.28;3.03;;;29.40;1.00;;;;;;5042338;28;20521;-59
2023/06/20 10:07:43;;;;;;;7.55;3.38;;;29.40;1.00;;;;;;5042175;28;20068;-59
2023/06/20 10:10:10;;;;;;;4.35;3.25;;;29.40;1.00;;;;;;5041967;28;20423;-58
2023/06/20 10:12:38;;;;;;;6.22;2.95;;;29.50;1.00;;;;;;5046066;28;20029;-59
2023/06/20 10:15:07;;;;;;;7.38;3.28;;;29.30;1.00;;;;;;5042787;28;20407;-58
2023/06/20 10:17:38;;;;;;;3.15;2.72;;;29.40;1.00;;;;;;5051765;28;20044;-59
2023/06/20 10:20:08;;;;;;;3.67;2.88;;;29.40;1.00;;;;;;5052454;28;20025;-59
2023/06/20 10:22:35;;;;;;;3.22;2.75;;;29.40;1.00;;;;;;5052235;28;20112;-59
2023/06/20 10:25:14;;;;;;;3.95;2.60;;;29.40;1.00;;;;;;5052088;28;20025;-58
2023/06/20 10:27:53;;;;;;;4.93;2.42;;;29.30;1.00;;;;;;5051614;28;20118;-59
2023/06/20 10:30:38;;;;;;;3.20;2.90;;;29.80;1.00;;;;;;5051898;28;20025;-59
2023/06/20 10:33:09;;;;;;;3.60;3.17;;;30.30;1.00;;;;;;5050668;28;20021;-59
2023/06/20 10:35:34;;;;;;;6.50;3.05;;;30.50;1.00;;;;;;5052117;28;20025;-59
2023/06/20 10:38:10;;;;;;;5.45;2.70;;;30.70;99.90;;;;;;5052002;28;20360;-59
2023/06/20 10:40:37;;;;;;;5.65;3.22;;;30.60;99.90;;;;;;5051959;28;20021;-59
2023/06/20 10:43:14;;;;;;;3.35;2.88;;;30.40;99.90;;;;;;5051972;28;20028;-59
2023/06/20 10:45:59;;;;;;;2.85;2.65;;;31.00;99.90;;;;;;5051883;28;20094;-59
2023/06/20 10:48:26;;;;;;;3.92;2.70;;;31.80;99.90;;;;;;5051003;28;20048;-60
2023/06/20 10:51:01;;;;;;;4.78;3.17;;;32.10;99.90;;;;;;5051965;28;20036;-59
2023/06/20 10:53:30;;;;;;;6.68;2.75;;;32.30;99.90;;;;;;5051561;28;20031;-59
2023/06/20 10:55:55;;;;;;;4.38;2.80;;;32.20;99.90;;;;;;5051606;28;20028;-59
2023/06/20 10:58:21;;;;;;;3.58;2.45;;;32.70;99.90;;;;;;5051198;28;20044;-59
2023/06/20 11:00:50;;;;;;;4.25;2.78;;;33.10;99.90;;;;;;5051757;28;20041;-59
2023/06/20 11:03:16;;;;;;;3.10;2.65;;;33.20;99.90;;;;;;5051137;28;20025;-60
2023/06/20 11:05:47;;;;;;;6.60;2.45;;;32.30;99.90;;;;;;5051397;28;20071;-59
2023/06/20 11:08:19;;;;;;;5.38;3.08;;;31.80;99.90;;;;;;5051638;28;20029;-59
2023/06/20 11:10:46;;;;;;;5.60;2.60;;;31.80;99.90;;;;;;5051351;28;20055;-59
2023/06/20 11:13:12;;;;;;;2.75;2.42;;;32.10;99.90;;;;;;5051263;28;20075;-59
2023/06/20 11:15:38;;;;;;;2.92;2.58;;;32.30;99.90;;;;;;5051566;28;20037;-59
2023/06/20 11:18:06;;;;;;;4.72;2.58;;;32.00;99.90;;;;;;5051660;28;20029;-59
2023/06/20 11:20:40;;;;;;;3.38;2.63;;;32.00;99.90;;;;;;5051594;28;20017;-59
2023/06/20 11:23:12;;;;;;;3.70;2.28;;;32.50;99.90;;;;;;5051202;28;20029;-59
2023/06/20 11:25:40;;;;;;;4.38;2.50;;;32.40;99.90;;;;;;5051292;28;20033;-59
2023/06/20 11:28:10;;;;;;;6.55;2.28;;;32.80;99.90;;;;;;5051281;28;20091;-60
2023/06/20 11:30:38;;;;;;;9.13;2.42;;;32.70;99.90;;;;;;5051460;28;20024;-60
2023/06/20 11:33:12;;;;;;;3.95;2.65;;;33.10;99.90;;;;;;5050018;28;20464;-59
2023/06/20 11:35:50;;;;;;;6.43;2.70;;;32.70;99.90;;;;;;5051238;28;20384;-60
2023/06/20 11:38:17;;;;;;;4.38;2.40;;;32.70;99.90;;;;;;5051094;28;20232;-59
2023/06/20 11:40:45;;;;;;;3.33;2.40;;;33.30;99.90;;;;;;5051346;28;20097;-59
2023/06/20 11:43:27;;;;;;;4.38;2.97;;;34.20;99.90;;;;;;5050962;28;20031;-59
2023/06/20 11:45:59;;;;;;;7.43;2.65;;;34.10;99.90;;;;;;5051175;28;20491;-59
2023/06/20 11:48:25;;;;;;;6.70;2.97;;;34.10;99.90;;;;;;5051238;28;20694;-60
2023/06/20 11:50:59;;;;;;;5.85;2.45;;;33.60;99.90;;;;;;5051404;28;20017;-59
2023/06/20 11:53:33;;;;;;;5.45;3.63;;;33.50;99.90;;;;;;5051101;28;20094;-59
2023/06/20 11:56:04;;;;;;;4.25;2.88;;;34.00;99.90;;;;;;5051063;28;20025;-59
2023/06/20 11:58:41;;;;;;;5.90;2.95;;;34.40;99.90;;;;;;5049530;28;20479;-59
2023/06/20 12:01:13;;;;;;;3.08;2.55;;;34.30;99.90;;;;;;5054575;28;20486;-59
2023/06/20 12:03:41;;;;;;;5.07;2.65;;;34.40;99.90;;;;;;5055053;28;20017;-59
2023/06/20 12:06:24;;;;;;;2.50;2.30;;;34.30;99.90;;;;;;5054706;28;20076;-59
2023/06/20 12:08:54;;;;;;;3.63;2.80;;;34.50;99.90;;;;;;5054532;28;20025;-59
2023/06/20 12:11:20;;;;;;;3.40;2.65;;;34.60;99.90;;;;;;5053946;28;20104;-59
2023/06/20 12:13:47;;;;;;;3.08;2.60;;;34.50;99.90;;;;;;5054672;28;20704;-59
2023/06/20 12:16:13;;;;;;;5.70;2.40;;;34.90;99.90;;;;;;5054539;28;20017;-59
2023/06/20 12:18:39;;;;;;;2.55;2.17;;;34.80;99.90;;;;;;5054431;28;20439;-59
2023/06/20 12:21:05;;;;;;;2.60;2.38;;;34.80;99.90;;;;;;5054455;28;20380;-59
2023/06/20 12:23:31;;;;;;;5.30;2.30;;;35.80;99.90;;;;;;5053866;28;20044;-59
2023/06/20 12:25:57;;;;;;;4.30;2.47;;;36.00;99.90;;;;;;5054035;28;20551;-59
2023/06/20 12:28:23;;;;;;;4.28;2.03;;;36.30;99.90;;;;;;5053731;28;20029;-59
2023/06/20 12:30:49;;;;;;;4.03;2.58;;;36.40;99.90;;;;;;5054264;28;20029;-59
2023/06/20 12:33:14;;;;;;;5.47;2.63;;;37.80;99.90;;;;;;5054090;28;20032;-60
2023/06/20 12:35:40;;;;;;;5.90;3.03;;;37.80;99.90;;;;;;5054366;28;20040;-59
2023/06/20 12:38:06;;;;;;;4.55;2.22;;;37.30;99.90;;;;;;5054382;28;20423;-59
2023/06/20 12:40:31;;;;;;;2.95;1.98;;;37.40;99.90;;;;;;5054337;28;20033;-58
2023/06/20 12:42:57;;;;;;;8.35;2.20;;;37.70;99.90;;;;;;5054250;28;20029;-59
2023/06/20 12:45:23;;;;;;;3.10;2.13;;;38.90;99.90;;;;;;5053929;28;20025;-60
2023/06/20 12:47:48;;;;;;;1.88;1.60;;;40.30;99.90;;;;;;5054340;28;20017;-59
2023/06/20 12:50:14;;;;;;;6.55;2.20;;;40.20;99.90;;;;;;5052742;28;20029;-59
2023/06/20 12:52:40;;;;;;;3.92;2.13;;;40.00;99.90;;;;;;5052913;28;20091;-60